Time;durP1;ratioP1;P1;durP2;ratioP2;P2;SDS_P1;SDS_P2;PMS_P1;PMS_P2;Temp;Humidity;BMP_temperature;BMP_pressure;BME280_temperature;BME280_humidity;BME280_pressure;Samples;Min_cycle;Max_cycle;Signal;HPM_P1;HPM_P2
2022/05/10 00:01:43;;;;;;;17.30;11.75;;;;;;;11.07;86.08;101866.00;10433063;28;20060;-77
2022/05/10 00:06:46;;;;;;;17.35;13.00;;;;;;;11.08;86.42;101852.09;10408201;28;20040;-77
2022/05/10 00:11:47;;;;;;;14.88;13.25;;;;;;;10.98;86.74;101853.25;10451354;28;20512;-77
2022/05/10 00:16:51;;;;;;;16.02;12.88;;;;;;;10.98;86.88;101854.94;10436010;28;20048;-77
2022/05/10 00:21:51;;;;;;;17.58;13.93;;;;;;;10.94;87.28;101843.41;10452836;28;20040;-78
2022/05/10 00:26:52;;;;;;;14.88;11.32;;;;;;;10.97;87.42;101845.28;10452308;28;20040;-77
2022/05/10 00:31:53;;;;;;;16.50;12.57;;;;;;;10.91;87.22;101853.69;10433643;28;20435;-78
2022/05/10 00:36:53;;;;;;;18.65;13.85;;;;;;;10.69;87.32;101854.03;10454583;28;20115;-77
2022/05/10 00:42:24;;;;;;;15.88;12.52;;;;;;;10.50;88.12;101850.25;10422168;28;20029;-77
2022/05/10 00:47:36;;;;;;;18.42;14.30;;;;;;;10.40;88.85;101853.09;10434720;28;20052;-78
2022/05/10 00:52:56;;;;;;;20.45;14.57;;;;;;;10.41;89.49;101847.06;10450768;28;20068;-78
2022/05/10 00:58:18;;;;;;;36.50;15.60;;;;;;;10.35;89.78;101852.78;10436931;28;20044;-78
2022/05/10 01:03:24;;;;;;;20.83;14.90;;;;;;;10.20;89.85;101846.56;10436797;28;20075;-78
2022/05/10 01:08:37;;;;;;;20.30;16.92;;;;;;;10.11;89.81;101844.22;10406847;28;20021;-78
2022/05/10 01:13:57;;;;;;;21.67;16.20;;;;;;;10.02;90.55;101839.31;10472923;28;20496;-78
2022/05/10 01:18:58;;;;;;;21.17;16.15;;;;;;;10.10;91.33;101835.50;10489644;28;20040;-78
2022/05/10 01:24:13;;;;;;;21.85;16.63;;;;;;;10.13;91.96;101827.84;10492871;28;20036;-78
2022/05/10 01:29:17;;;;;;;22.80;15.15;;;;;;;10.19;92.41;101818.59;10492118;28;20036;-78
2022/05/10 01:34:19;;;;;;;20.17;15.95;;;;;;;10.28;91.69;101820.06;10477116;28;20036;-78
2022/05/10 01:39:32;;;;;;;27.13;19.08;;;;;;;10.24;91.09;101825.91;10474905;28;20490;-78
2022/05/10 01:45:08;;;;;;;26.33;17.17;;;;;;;10.25;91.12;101816.38;10464111;28;20391;-78
2022/05/10 01:50:17;;;;;;;26.38;19.25;;;;;;;10.23;91.51;101810.13;10461855;28;20496;-78
2022/05/10 01:55:31;;;;;;;20.77;16.38;;;;;;;10.14;91.82;101802.56;10502601;28;20036;-79
2022/05/10 02:00:33;;;;;;;22.05;17.80;;;;;;;10.11;91.59;101816.38;10497889;28;20127;-79
2022/05/10 02:05:43;;;;;;;23.25;18.33;;;;;;;9.94;92.17;101804.81;10468137;28;20123;-78
2022/05/10 02:10:46;;;;;;;29.63;19.42;;;;;;;9.96;92.20;101797.97;10475669;28;20111;-78
2022/05/10 02:15:59;;;;;;;21.67;17.20;;;;;;;9.92;92.68;101792.44;10414188;28;20036;-78
2022/05/10 02:21:08;;;;;;;26.05;19.60;;;;;;;10.05;93.13;101788.91;10416108;28;20037;-79
2022/05/10 02:26:11;;;;;;;25.80;20.48;;;;;;;10.05;93.27;101788.91;10425727;28;20648;-79
2022/05/10 02:33:06;;;;;;;25.23;18.10;;;;;;;10.00;93.08;101772.94;10408407;28;20033;-79
2022/05/10 02:36:58;;;;;;;26.23;20.10;;;;;;;9.94;93.48;101777.75;10420077;28;20120;-79
2022/05/10 02:41:59;;;;;;;32.70;20.92;;;;;;;9.98;93.69;101766.69;10456691;28;20115;-79
2022/05/10 02:46:59;;;;;;;28.45;23.10;;;;;;;9.93;93.80;101765.50;10422591;28;20037;-79
2022/05/10 02:52:00;;;;;;;33.38;22.63;;;;;;;9.92;94.40;101761.06;10426299;28;20049;-79
2022/05/10 02:57:00;;;;;;;29.23;22.77;;;;;;;9.94;94.47;101764.69;10456197;28;20076;-79
2022/05/10 03:02:01;;;;;;;30.75;23.67;;;;;;;9.94;94.44;101765.56;10438358;28;20036;-79
2022/05/10 03:07:03;;;;;;;32.03;24.88;;;;;;;9.90;94.67;101760.97;10440817;28;20465;-79
2022/05/10 03:12:05;;;;;;;35.70;25.10;;;;;;;9.91;94.86;101756.66;10456840;28;20443;-79
2022/05/10 03:17:05;;;;;;;37.77;25.90;;;;;;;9.91;94.89;101746.19;10437967;28;20032;-79
2022/05/10 03:22:06;;;;;;;33.47;25.23;;;;;;;9.86;95.27;101747.59;10393740;28;20052;-79
2022/05/10 03:27:07;;;;;;;34.95;24.30;;;;;;;9.80;95.22;101749.00;10457645;28;20074;-79
2022/05/10 03:32:08;;;;;;;33.55;25.85;;;;;;;9.81;95.24;101737.75;10421953;28;20496;-79
2022/05/10 03:37:09;;;;;;;34.15;27.25;;;;;;;9.80;95.82;101740.25;10421611;28;20036;-79
2022/05/10 03:42:09;;;;;;;31.80;24.73;;;;;;;9.78;96.21;101731.41;10438473;28;20120;-79
2022/05/10 03:47:10;;;;;;;30.90;25.45;;;;;;;9.78;95.88;101723.56;10437965;28;20118;-79
2022/05/10 03:52:11;;;;;;;31.23;25.02;;;;;;;9.76;96.02;101731.31;10432002;28;20472;-79
2022/05/10 03:57:11;;;;;;;40.40;27.92;;;;;;;9.77;96.21;101725.28;10420100;28;20047;-79
2022/05/10 04:02:12;;;;;;;32.45;26.33;;;;;;;9.77;96.09;101725.28;10417267;28;20036;-79
2022/05/10 04:07:13;;;;;;;42.28;29.05;;;;;;;9.81;96.55;101726.38;10421032;28;20481;-79
2022/05/10 04:12:14;;;;;;;37.13;28.85;;;;;;;9.91;96.48;101722.66;10401637;28;20045;-79
2022/05/10 04:17:14;;;;;;;39.42;30.05;;;;;;;9.96;96.52;101713.41;10424546;28;20052;-79
2022/05/10 04:22:16;;;;;;;36.92;28.23;;;;;;;10.03;96.90;101710.34;10435985;28;20049;-78
2022/05/10 04:27:17;;;;;;;36.00;25.53;;;;;;;10.14;96.88;101711.03;10414173;28;21274;-76
2022/05/10 04:32:17;;;;;;;35.38;27.13;;;;;;;10.17;96.92;101713.81;10426660;28;20065;-75
2022/05/10 04:37:18;;;;;;;35.70;24.73;;;;;;;10.23;96.65;101719.44;10454819;28;20031;-75
2022/05/10 04:42:18;;;;;;;33.13;25.98;;;;;;;10.32;96.77;101713.91;10420643;28;20064;-76
2022/05/10 04:47:19;;;;;;;33.47;26.55;;;;;;;10.42;96.48;101712.78;10433532;28;20032;-78
2022/05/10 04:52:19;;;;;;;35.30;26.13;;;;;;;10.57;96.51;101710.22;10431400;28;20057;-77
2022/05/10 04:57:21;;;;;;;32.35;24.85;;;;;;;10.75;95.86;101714.75;10401646;28;20457;-77
2022/05/10 05:02:22;;;;;;;34.97;24.17;;;;;;;10.93;94.86;101715.88;10426187;28;20038;-77
2022/05/10 05:07:22;;;;;;;27.63;22.45;;;;;;;11.14;94.07;101713.59;10426577;28;20124;-77
2022/05/10 05:12:23;;;;;;;25.80;22.27;;;;;;;11.43;92.29;101722.25;10404967;28;20235;-77
2022/05/10 05:17:23;;;;;;;24.75;20.70;;;;;;;11.73;91.86;101714.34;10430850;28;20061;-77
2022/05/10 05:22:25;;;;;;;22.00;18.42;;;;;;;12.20;89.62;101714.31;10386923;28;20052;-78
2022/05/10 05:27:26;;;;;;;22.05;16.88;;;;;;;12.63;88.97;101713.09;10416707;28;20464;-78
2022/05/10 05:32:34;;;;;;;26.17;20.55;;;;;;;13.44;86.58;101709.31;10429011;28;20071;-77
2022/05/10 05:37:34;;;;;;;24.15;19.65;;;;;;;14.50;81.90;101694.97;10401159;28;20040;-77
2022/05/10 05:42:35;;;;;;;19.23;17.23;;;;;;;15.07;78.21;101706.22;10409706;28;20077;-78
2022/05/10 05:47:36;;;;;;;18.27;15.68;;;;;;;15.93;76.62;101694.75;10415306;28;20460;-77
2022/05/10 05:52:37;;;;;;;19.30;15.38;;;;;;;16.99;70.88;101696.88;10417203;28;20115;-78
2022/05/10 05:57:37;;;;;;;27.65;19.48;;;;;;;17.48;70.66;101702.00;10435067;28;20044;-78
2022/05/10 06:02:38;;;;;;;19.13;14.38;;;;;;;18.67;67.23;101696.75;10436098;28;20044;-77
2022/05/10 06:07:38;;;;;;;17.23;13.47;;;;;;;19.88;61.03;101690.03;10451488;28;20041;-76
2022/05/10 06:12:40;;;;;;;15.50;13.03;;;;;;;19.70;62.11;101690.50;10451278;28;20041;-77
2022/05/10 06:17:42;;;;;;;17.40;13.32;;;;;;;19.26;62.12;101688.56;10428667;28;20121;-77
2022/05/10 06:22:44;;;;;;;17.08;13.65;;;;;;;18.83;62.33;101684.78;10438261;28;20032;-77
2022/05/10 06:27:47;;;;;;;16.58;11.90;;;;;;;18.70;61.81;101681.81;10429172;28;20463;-77
2022/05/10 06:32:48;;;;;;;14.23;12.77;;;;;;;18.39;62.37;101680.94;10395552;28;20413;-77
2022/05/10 06:43:08;;;;;;;16.90;12.88;;;;;;;18.26;65.49;101673.50;10425243;28;20033;-77
2022/05/10 06:48:09;;;;;;;14.15;11.57;;;;;;;18.41;65.31;101665.13;10403655;28;20030;-76
2022/05/10 06:53:10;;;;;;;18.30;12.23;;;;;;;18.51;65.80;101663.59;10431516;28;20484;-77
2022/05/10 06:58:10;;;;;;;16.25;12.20;;;;;;;19.19;61.78;101650.41;10384550;28;20116;-76
2022/05/10 07:03:14;;;;;;;14.30;10.82;;;;;;;20.03;61.14;101641.69;10367965;28;20103;-77
2022/05/10 07:08:14;;;;;;;13.02;9.90;;;;;;;22.69;51.19;101632.44;10400103;28;20040;-76
2022/05/10 07:13:19;;;;;;;11.37;10.07;;;;;;;23.25;50.62;101633.84;10383347;28;20033;-76
2022/05/10 07:18:19;;;;;;;10.98;8.52;;;;;;;22.60;51.89;101627.94;10385465;28;20034;-77
2022/05/10 07:23:21;;;;;;;13.77;8.50;;;;;;;22.19;54.01;101625.69;10417470;28;20048;-77
2022/05/10 07:28:22;;;;;;;9.77;8.65;;;;;;;21.60;56.80;101623.13;10401679;28;20466;-77
2022/05/10 07:33:24;;;;;;;18.20;9.50;;;;;;;21.06;58.75;101631.19;10400482;28;20064;-77
2022/05/10 07:38:25;;;;;;;9.75;7.75;;;;;;;20.75;55.98;101630.63;10439146;28;20039;-77
2022/05/10 07:43:25;;;;;;;11.63;8.48;;;;;;;20.54;59.13;101621.41;10438879;28;20064;-76
2022/05/10 07:48:26;;;;;;;10.80;7.47;;;;;;;20.56;57.97;101624.09;10431851;28;20134;-78
2022/05/10 07:53:26;;;;;;;13.70;8.05;;;;;;;20.50;59.79;101622.22;10429569;28;20171;-77
2022/05/10 07:58:27;;;;;;;13.57;9.43;;;;;;;20.58;59.52;101613.47;10424624;28;20059;-77
2022/05/10 08:03:28;;;;;;;15.80;10.05;;;;;;;20.77;57.64;101620.03;10434369;28;20488;-76
2022/05/10 08:08:29;;;;;;;14.70;10.73;;;;;;;20.98;57.45;101617.78;10437265;28;20082;-77
2022/05/10 08:13:31;;;;;;;8.43;7.20;;;;;;;21.25;54.10;101618.19;10450455;28;20481;-76
2022/05/10 08:18:31;;;;;;;10.52;7.03;;;;;;;21.85;54.40;101608.41;10403472;28;20112;-77
2022/05/10 08:23:33;;;;;;;10.37;5.43;;;;;;;22.43;48.86;101614.38;10422208;28;20461;-77
2022/05/10 08:28:34;;;;;;;28.50;5.78;;;;;;;22.78;48.21;101612.97;10448403;28;20098;-77
2022/05/10 08:33:36;;;;;;;7.90;5.80;;;;;;;23.40;46.94;101610.78;10453761;28;20040;-77
2022/05/10 08:38:37;;;;;;;8.07;4.78;;;;;;;24.53;45.15;101599.66;10411968;28;20044;-77
2022/05/10 08:43:47;;;;;;;7.33;4.37;;;;;;;25.34;41.39;101589.81;10421257;28;20032;-77
2022/05/10 08:48:50;;;;;;;8.48;5.90;;;;;;;24.44;43.41;101597.84;10435680;28;20029;-77
2022/05/10 08:53:51;;;;;;;10.95;5.70;;;;;;;24.32;43.73;101586.22;10420310;28;20165;-77
2022/05/10 08:59:06;;;;;;;9.53;4.77;;;;;;;24.46;41.95;101590.72;10420761;28;20437;-77
2022/05/10 09:04:10;;;;;;;10.85;5.63;;;;;;;24.75;44.79;101593.47;10422369;28;20040;-78
2022/05/10 09:09:31;;;;;;;7.50;5.03;;;;;;;25.77;39.73;101575.41;10454614;28;20047;-76
2022/05/10 09:14:45;;;;;;;9.85;4.72;;;;;;;24.78;42.56;101574.72;10475320;28;20048;-77
2022/05/10 09:19:46;;;;;;;8.40;5.28;;;;;;;24.12;43.67;101577.28;10479523;28;20392;-77
2022/05/10 09:24:49;;;;;;;6.67;4.40;;;;;;;23.81;45.02;101563.78;10495703;28;20039;-78
2022/05/10 09:29:51;;;;;;;13.98;7.47;;;;;;;23.40;45.64;101560.06;10470385;28;20035;-77
2022/05/10 09:34:59;;;;;;;8.70;4.80;;;;;;;24.31;43.36;101559.50;10435801;28;20086;-77
2022/05/10 09:40:10;;;;;;;6.10;3.97;;;;;;;24.85;42.36;101537.25;10420365;28;20032;-78
2022/05/10 09:45:20;;;;;;;;;;;;;;;24.76;43.47;101547.06;10453153;28;20052;-77
2022/05/10 09:50:21;;;;;;;6.55;5.50;;;;;;;25.77;40.17;101536.06;10452812;28;19920;-78
2022/05/10 09:55:28;;;;;;;7.45;4.38;;;;;;;26.30;39.39;101529.53;10435957;28;20025;-77
2022/05/10 10:00:51;;;;;;;9.07;4.70;;;;;;;26.52;40.19;101549.94;10453327;28;20071;-77
2022/05/10 10:05:54;;;;;;;9.45;5.60;;;;;;;28.38;34.94;101535.25;10458622;28;20115;-76
2022/05/10 10:10:54;;;;;;;7.30;4.13;;;;;;;29.42;33.46;101528.00;10460164;28;20041;-78
2022/05/10 10:15:55;;;;;;;5.87;4.17;;;;;;;29.51;35.59;101526.94;10461836;28;20485;-78
2022/05/10 10:20:56;;;;;;;8.93;3.80;;;;;;;28.37;34.70;101534.34;10426357;28;20025;-77
2022/05/10 10:26:03;;;;;;;14.45;4.68;;;;;;;27.75;37.55;101526.31;10460830;28;20025;-77
2022/05/10 10:31:15;;;;;;;6.15;4.13;;;;;;;28.46;36.56;101522.56;10426554;28;20538;-77
2022/05/10 10:36:23;;;;;;;11.85;5.20;;;;;;;29.40;31.54;101514.56;10443324;28;20041;-77
2022/05/10 10:41:47;;;;;;;7.25;4.75;;;;;;;28.19;35.40;101500.56;10426303;28;20112;-77
2022/05/10 10:46:59;;;;;;;9.18;4.88;;;;;;;28.87;32.75;101498.50;10442643;28;20049;-77
2022/05/10 10:52:00;;;;;;;6.45;4.32;;;;;;;29.04;32.71;101491.91;10459676;28;20094;-77
2022/05/10 10:57:11;;;;;;;6.80;3.57;;;;;;;28.63;33.20;101500.72;10425286;28;20079;-77
2022/05/10 11:02:39;;;;;;;8.25;3.80;;;;;;;30.19;31.46;101476.84;10441188;28;20040;-77
2022/05/10 11:08:09;;;;;;;14.15;4.35;;;;;;;31.76;27.56;101486.94;10457956;28;20116;-77
2022/05/10 11:13:20;;;;;;;5.07;3.92;;;;;;;31.97;29.23;101488.97;10473222;28;20205;-76
2022/05/10 11:18:31;;;;;;;7.95;4.20;;;;;;;31.72;28.69;101466.28;10487920;28;20044;-76
2022/05/10 11:23:58;;;;;;;6.37;3.63;;;;;;;30.39;29.08;101460.13;10498705;28;20084;-76
2022/05/10 11:29:10;;;;;;;7.63;3.85;;;;;;;31.56;27.57;101446.94;10499476;28;20043;-77
2022/05/10 11:34:48;;;;;;;9.98;4.00;;;;;;;30.94;28.73;101429.84;10497957;28;20040;-75
2022/05/10 11:39:58;;;;;;;12.73;4.28;;;;;;;29.53;31.34;101446.91;10498371;28;20507;-76
2022/05/10 11:45:12;;;;;;;10.93;4.30;;;;;;;29.86;29.42;101442.50;10499030;28;20034;-77
2022/05/10 11:50:24;;;;;;;9.65;4.38;;;;;;;29.58;30.32;101432.38;10496654;28;20032;-78
2022/05/10 11:55:36;;;;;;;7.25;3.80;;;;;;;28.55;32.57;101421.88;10480754;28;20020;-77
2022/05/10 12:00:40;;;;;;;15.00;5.18;;;;;;;27.98;31.12;101431.81;10497939;28;20369;-78
2022/05/10 12:05:41;;;;;;;8.75;5.07;;;;;;;27.48;32.67;101415.53;10497715;28;20039;-77
2022/05/10 12:10:45;;;;;;;10.73;4.85;;;;;;;28.94;32.38;101408.59;10489214;28;20056;-76
2022/05/10 12:21:19;;;;;;;9.82;4.47;;;;;;;29.89;29.96;101396.56;10441811;28;20691;-75
2022/05/10 12:26:44;;;;;;;10.88;4.47;;;;;;;28.84;32.38;101396.22;10455489;28;20029;-75
2022/05/10 12:31:57;;;;;;;6.88;4.20;;;;;;;30.58;30.25;101394.81;10455546;28;20051;-77
2022/05/10 12:37:21;;;;;;;17.02;5.03;;;;;;;31.36;26.90;101379.97;10421609;28;20032;-79
2022/05/10 12:42:34;;;;;;;11.27;4.65;;;;;;;28.25;32.15;101378.47;10439114;28;20037;-79
2022/05/10 12:47:52;;;;;;;6.70;5.07;;;;;;;28.16;32.03;101381.34;10437734;28;20025;-80
2022/05/10 12:52:52;;;;;;;7.93;4.32;;;;;;;27.81;33.51;101378.31;10437025;28;20032;-77
2022/05/10 12:58:14;;;;;;;9.90;4.97;;;;;;;27.68;34.43;101366.84;10454674;28;20025;-77
2022/05/10 13:03:25;;;;;;;11.73;3.83;;;;;;;27.03;33.52;101370.44;10455114;28;20032;-75
2022/05/10 13:08:37;;;;;;;6.05;3.60;;;;;;;26.71;34.23;101356.50;10437318;28;20457;-77
2022/05/10 13:13:38;;;;;;;6.43;3.80;;;;;;;26.41;33.68;101353.25;10454016;28;20102;-77
2022/05/10 13:18:38;;;;;;;11.57;5.20;;;;;;;26.22;34.07;101353.44;10420691;28;20051;-78
2022/05/10 13:23:40;;;;;;;5.57;3.92;;;;;;;26.39;34.35;101345.22;10419836;28;20319;-77
2022/05/10 13:28:57;;;;;;;9.80;4.17;;;;;;;25.91;34.65;101348.34;10419747;28;20489;-77
2022/05/10 13:34:15;;;;;;;7.00;4.05;;;;;;;26.04;36.60;101343.75;10436300;28;20037;-78
2022/05/10 13:39:28;;;;;;;9.80;4.63;;;;;;;25.75;35.58;101339.53;10424011;28;20079;-81
2022/05/10 13:44:29;;;;;;;8.57;4.05;;;;;;;26.92;36.46;101336.56;10428304;28;20056;-78
2022/05/10 13:49:43;;;;;;;5.03;3.57;;;;;;;27.69;32.45;101286.19;10443122;28;20031;-80
2022/05/10 13:54:44;;;;;;;17.05;5.35;;;;;;;26.62;34.90;101321.72;10428697;28;20102;-77
2022/05/10 13:59:46;;;;;;;7.37;4.20;;;;;;;26.11;34.92;101307.03;10414129;28;20086;-77
2022/05/10 14:04:47;;;;;;;8.05;4.93;;;;;;;26.77;34.87;101308.09;10427144;28;20037;-77
2022/05/10 14:09:49;;;;;;;6.55;4.25;;;;;;;26.76;35.12;101298.28;10430226;28;20029;-77
2022/05/10 14:14:50;;;;;;;;;;;;;;;26.32;35.36;101297.88;10427003;28;20384;-78
2022/05/10 14:19:51;;;;;;;5.30;4.30;;;;;;;26.24;35.96;101291.72;10441484;28;19928;-77
2022/05/10 14:24:52;;;;;;;7.57;3.63;;;;;;;26.37;35.34;101293.34;10440140;28;20061;-78
2022/05/10 14:29:57;;;;;;;10.45;4.20;;;;;;;26.18;35.01;101275.69;10442577;28;20037;-79
2022/05/10 14:34:58;;;;;;;13.13;5.00;;;;;;;25.94;35.97;101270.56;10423871;28;20037;-80
2022/05/10 14:40:15;;;;;;;10.15;3.72;;;;;;;26.00;34.75;101272.28;10459775;28;20423;-80
2022/05/10 14:45:41;;;;;;;8.15;4.30;;;;;;;26.26;34.63;101262.22;10438766;28;20049;-79
2022/05/10 14:50:43;;;;;;;24.25;3.92;;;;;;;26.10;34.56;101265.91;10433453;28;20044;-80
2022/05/10 14:56:05;;;;;;;6.50;3.92;;;;;;;25.82;35.14;101261.72;10452767;28;20147;-79
2022/05/10 15:01:17;;;;;;;6.32;4.55;;;;;;;26.01;35.25;101255.28;10441435;28;20040;-81
2022/05/10 15:06:17;;;;;;;10.55;4.68;;;;;;;26.49;36.11;101245.81;10451444;28;20036;-80
2022/05/10 15:11:27;;;;;;;8.35;4.18;;;;;;;27.43;34.12;101240.03;10442341;28;20036;-81
2022/05/10 15:16:27;;;;;;;5.77;4.10;;;;;;;26.88;35.79;101242.66;10423940;28;20052;-78
2022/05/10 15:21:32;;;;;;;16.03;5.00;;;;;;;26.34;35.85;101242.41;10457875;28;20709;-78
2022/05/10 15:26:47;;;;;;;12.93;4.70;;;;;;;25.42;37.14;101238.84;10423114;28;20036;-77
2022/05/10 15:31:48;;;;;;;12.98;4.90;;;;;;;24.52;37.79;101237.56;10408203;28;20032;-77
2022/05/10 15:36:51;;;;;;;13.38;4.47;;;;;;;24.31;38.71;101234.09;10457290;28;20053;-79
2022/05/10 15:41:52;;;;;;;8.77;4.30;;;;;;;24.45;40.72;101230.47;10437689;28;20131;-78
2022/05/10 15:46:52;;;;;;;8.33;4.87;;;;;;;24.63;37.99;101227.72;10457282;28;20455;-78
2022/05/10 15:51:54;;;;;;;9.77;4.43;;;;;;;24.97;38.80;101229.34;10421789;28;20013;-78
2022/05/10 15:56:54;;;;;;;6.35;3.95;;;;;;;25.00;37.58;101217.72;10456255;28;20070;-78
2022/05/10 16:01:55;;;;;;;8.90;4.37;;;;;;;24.82;38.24;101219.59;10432540;28;20053;-78
2022/05/10 16:06:55;;;;;;;9.57;5.60;;;;;;;24.66;38.18;101224.13;10454584;28;20472;-77
2022/05/10 16:11:57;;;;;;;9.90;5.70;;;;;;;24.35;39.24;101218.94;10436223;28;20047;-78
2022/05/10 16:16:57;;;;;;;11.32;4.80;;;;;;;24.27;39.79;101218.94;10455189;28;20044;-78
2022/05/10 16:21:57;;;;;;;8.67;5.10;;;;;;;24.21;39.93;101221.66;10450394;28;20535;-78
2022/05/10 16:32:23;;;;;;;9.80;4.68;;;;;;;24.06;41.64;101217.25;10422772;28;20143;-78
2022/05/10 16:37:24;;;;;;;10.40;6.50;;;;;;;23.95;41.63;101216.34;10431631;28;20067;-78
2022/05/10 16:42:24;;;;;;;13.37;7.30;;;;;;;23.86;41.50;101209.22;10453031;28;20076;-77
2022/05/10 16:47:25;;;;;;;11.87;6.50;;;;;;;23.77;42.46;101210.16;10434818;28;20123;-78
2022/05/10 16:52:25;;;;;;;9.27;5.03;;;;;;;23.78;42.46;101203.91;10434588;28;20125;-77
2022/05/10 16:57:26;;;;;;;8.57;5.70;;;;;;;23.65;43.10;101210.19;10452942;28;20064;-77
2022/05/10 17:02:27;;;;;;;10.47;6.67;;;;;;;23.48;43.25;101207.50;10432634;28;20444;-76
2022/05/10 17:07:28;;;;;;;8.57;5.93;;;;;;;23.34;44.11;101207.53;10394584;28;20037;-77
2022/05/10 17:12:28;;;;;;;9.10;5.43;;;;;;;23.34;43.62;101205.72;10410865;28;20144;-78
2022/05/10 17:17:29;;;;;;;7.77;5.13;;;;;;;23.23;43.85;101196.78;10411819;28;20029;-80
2022/05/10 17:22:29;;;;;;;14.70;8.50;;;;;;;23.14;43.25;101197.69;10435012;28;20391;-77
2022/05/10 17:27:34;;;;;;;10.33;9.07;;;;;;;23.24;44.11;101202.19;10452072;28;20025;-78
2022/05/10 17:32:35;;;;;;;13.38;6.43;;;;;;;23.25;43.14;101195.03;10433380;28;20481;-77
2022/05/10 17:37:35;;;;;;;8.90;5.17;;;;;;;23.01;43.29;101205.69;10452820;28;20048;-77
2022/05/10 17:42:36;;;;;;;9.13;4.70;;;;;;;22.73;43.52;101207.41;10451892;28;20068;-78
2022/05/10 17:47:36;;;;;;;12.90;5.03;;;;;;;22.56;44.91;101213.56;10449445;28;20544;-78
2022/05/10 17:52:37;;;;;;;10.13;5.27;;;;;;;22.28;44.79;101212.56;10418174;28;20056;-78
2022/05/10 17:57:38;;;;;;;5.60;4.63;;;;;;;22.01;45.35;101219.53;10388838;28;20099;-78
2022/05/10 18:02:38;;;;;;;12.23;4.97;;;;;;;21.79;45.96;101211.41;10387440;28;20073;-77
2022/05/10 18:07:39;;;;;;;10.30;3.83;;;;;;;21.66;46.14;101218.38;10396153;28;20064;-77
2022/05/10 18:12:39;;;;;;;7.57;4.13;;;;;;;21.46;46.74;101212.00;10434332;28;20485;-77
2022/05/10 18:17:40;;;;;;;4.53;3.75;;;;;;;21.29;46.98;101220.72;10433180;28;20120;-77
2022/05/10 18:22:40;;;;;;;7.38;4.25;;;;;;;21.10;48.09;101235.63;10450905;28;20057;-77
2022/05/10 18:27:41;;;;;;;7.05;4.43;;;;;;;20.92;46.91;101229.25;10457007;28;20111;-77
2022/05/10 18:32:44;;;;;;;24.87;4.70;;;;;;;20.68;47.04;101228.06;10439073;28;20075;-76
2022/05/10 18:37:44;;;;;;;13.23;3.22;;;;;;;20.41;48.20;101238.38;10457869;28;20124;-77
2022/05/10 18:42:45;;;;;;;8.45;3.65;;;;;;;20.13;48.96;101238.00;10439529;28;20476;-77
2022/05/10 18:47:45;;;;;;;11.15;3.30;;;;;;;20.09;49.23;101229.97;10458549;28;20064;-77
2022/05/10 18:52:46;;;;;;;7.20;3.42;;;;;;;19.87;49.77;101243.78;10438744;28;20532;-77
2022/05/10 18:57:47;;;;;;;9.45;4.78;;;;;;;19.64;51.53;101246.97;10436649;28;20039;-80
2022/05/10 19:02:47;;;;;;;7.90;3.72;;;;;;;19.42;52.76;101243.06;10439114;28;20033;-77
2022/05/10 19:07:48;;;;;;;11.40;5.22;;;;;;;18.88;56.37;101262.41;10454178;28;20088;-77
2022/05/10 19:12:50;;;;;;;11.02;4.40;;;;;;;18.58;58.49;101262.66;10454845;28;20527;-77
2022/05/10 19:17:50;;;;;;;14.27;5.95;;;;;;;18.30;60.30;101268.28;10437866;28;20390;-77
2022/05/10 19:22:51;;;;;;;14.50;7.00;;;;;;;18.08;61.73;101277.47;10455014;28;20037;-78
2022/05/10 19:27:52;;;;;;;11.35;7.07;;;;;;;17.80;63.63;101281.19;10469996;28;20051;-78
2022/05/10 19:32:52;;;;;;;12.82;6.93;;;;;;;17.63;63.73;101281.69;10420382;28;20098;-77
2022/05/10 19:37:53;;;;;;;8.43;4.57;;;;;;;17.55;61.75;101289.41;10411920;28;20065;-77
2022/05/10 19:42:55;;;;;;;14.25;5.13;;;;;;;17.45;60.38;101293.59;10385744;28;20025;-79
2022/05/10 19:47:55;;;;;;;7.50;3.33;;;;;;;17.43;59.20;101294.38;10429734;28;20053;-78
2022/05/10 19:52:56;;;;;;;8.10;2.92;;;;;;;17.42;58.38;101305.81;10425984;28;20599;-79
2022/05/10 19:57:58;;;;;;;6.65;3.53;;;;;;;17.41;57.91;101307.59;10425241;28;20060;-78
2022/05/10 20:08:18;;;;;;;9.88;3.83;;;;;;;17.31;57.99;101326.72;10453203;28;20041;-78
2022/05/10 20:13:19;;;;;;;10.13;3.42;;;;;;;17.22;58.49;101318.53;10485605;28;20060;-78
2022/05/10 20:18:19;;;;;;;7.60;3.45;;;;;;;17.18;55.83;101333.38;10443493;28;20061;-78
2022/05/10 20:23:20;;;;;;;3.40;2.03;;;;;;;17.19;53.14;101319.31;10477136;28;20036;-78
2022/05/10 20:28:21;;;;;;;10.55;2.38;;;;;;;17.08;51.21;101320.75;10443642;28;20068;-78
2022/05/10 20:33:22;;;;;;;6.43;2.27;;;;;;;16.99;52.04;101324.06;10411191;28;20503;-78
2022/05/10 20:38:22;;;;;;;5.32;2.38;;;;;;;16.86;51.57;101320.13;10482689;28;20309;-78
2022/05/10 20:43:23;;;;;;;6.25;2.15;;;;;;;16.80;52.36;101322.59;10465946;28;20041;-78
2022/05/10 20:48:24;;;;;;;5.43;1.90;;;;;;;16.71;51.94;101329.38;10446683;28;20115;-78
2022/05/10 20:53:25;;;;;;;3.65;2.15;;;;;;;16.66;52.68;101328.34;10465744;28;20036;-78
2022/05/10 20:58:25;;;;;;;4.20;1.95;;;;;;;16.59;53.36;101316.72;10463962;28;20036;-78
2022/05/10 21:03:26;;;;;;;4.07;1.92;;;;;;;16.51;53.48;101305.03;10464432;28;20072;-78
2022/05/10 21:08:32;;;;;;;3.55;2.03;;;;;;;16.46;53.30;101305.72;10465199;28;20040;-78
2022/05/10 21:13:33;;;;;;;7.35;2.05;;;;;;;16.31;56.21;101314.09;10449622;28;20051;-78
2022/05/10 21:18:33;;;;;;;6.68;2.38;;;;;;;16.09;58.00;101305.47;10464588;28;20046;-78
2022/05/10 21:23:34;;;;;;;4.20;2.40;;;;;;;15.89;59.67;101304.81;10482393;28;20561;-78
2022/05/10 21:28:36;;;;;;;4.70;3.08;;;;;;;15.69;61.31;101311.22;10464519;28;20067;-78
2022/05/10 21:33:37;;;;;;;6.05;2.42;;;;;;;15.52;61.02;101309.75;10464124;28;20545;-78
2022/05/10 21:38:37;;;;;;;4.05;2.25;;;;;;;15.47;60.90;101306.94;10463566;28;20052;-78
2022/05/10 21:43:38;;;;;;;3.92;2.17;;;;;;;15.40;64.06;101305.84;10464501;28;20056;-78
2022/05/10 21:48:38;;;;;;;7.32;2.28;;;;;;;15.19;62.49;101305.97;10462956;28;20113;-79
2022/05/10 21:53:39;;;;;;;5.63;1.95;;;;;;;15.06;62.95;101307.28;10481996;28;20409;-79
2022/05/10 21:58:39;;;;;;;4.68;2.10;;;;;;;14.96;63.31;101313.06;10459433;28;20094;-78
2022/05/10 22:03:40;;;;;;;5.88;1.92;;;;;;;15.03;63.80;101308.88;10441487;28;20029;-78
2022/05/10 22:08:40;;;;;;;6.10;2.10;;;;;;;14.97;65.02;101307.81;10489049;28;20114;-78
2022/05/10 22:13:41;;;;;;;4.95;2.67;;;;;;;14.88;65.89;101285.53;10431353;28;20041;-77
2022/05/10 22:18:41;;;;;;;3.90;1.83;;;;;;;14.80;66.27;101282.59;10443551;28;20119;-78
2022/05/10 22:23:42;;;;;;;5.70;2.03;;;;;;;14.71;67.19;101279.59;10430415;28;20102;-77
2022/05/10 22:28:42;;;;;;;4.75;2.10;;;;;;;14.65;67.97;101281.13;10446783;28;20033;-78
2022/05/10 22:33:43;;;;;;;6.80;3.72;;;;;;;14.65;67.96;101281.13;10431676;28;20453;-78
2022/05/10 22:38:44;;;;;;;6.22;2.20;;;;;;;14.57;67.66;101282.59;10445694;28;20044;-78
2022/05/10 22:43:44;;;;;;;5.00;2.83;;;;;;;14.58;67.63;101280.88;10448854;28;20036;-78
2022/05/10 22:48:45;;;;;;;5.85;2.70;;;;;;;14.57;68.58;101279.94;10446326;28;20099;-78
2022/05/10 22:53:46;;;;;;;6.25;2.22;;;;;;;14.58;67.86;101270.34;10447341;28;20045;-77
2022/05/10 22:58:46;;;;;;;4.07;2.53;;;;;;;14.58;67.12;101267.69;10445387;28;20505;-79
2022/05/10 23:03:47;;;;;;;5.60;2.33;;;;;;;14.51;66.99;101259.56;10434572;28;20061;-78
2022/05/10 23:08:47;;;;;;;5.82;2.55;;;;;;;14.40;67.91;101255.63;10434469;28;20068;-78
2022/05/10 23:13:48;;;;;;;8.05;2.22;;;;;;;14.40;68.30;101258.25;10445088;28;20056;-77
2022/05/10 23:18:49;;;;;;;5.82;3.55;;;;;;;14.36;68.81;101257.22;10443608;28;20041;-77
2022/05/10 23:23:49;;;;;;;8.45;2.58;;;;;;;14.34;68.24;101253.63;10445758;28;20045;-78
2022/05/10 23:28:50;;;;;;;11.93;3.30;;;;;;;14.36;68.64;101248.44;10403293;28;20053;-78